Time;durP1;ratioP1;P1;durP2;ratioP2;P2;SDS_P1;SDS_P2;PMS_P1;PMS_P2;Temp;Humidity;BMP_temperature;BMP_pressure;BME280_temperature;BME280_humidity;BME280_pressure;Samples;Min_cycle;Max_cycle;Signal;HPM_P1;HPM_P2
2023/05/25 00:00:44;;;;;;;16.98;4.82;;;;;;;15.30;51.84;102465.94;6190192;23;20028;-67
2023/05/25 00:03:29;;;;;;;9.27;3.88;;;;;;;15.27;51.87;102456.34;6190532;23;20025;-69
2023/05/25 00:06:00;;;;;;;10.52;3.92;;;;;;;15.26;51.79;102459.28;6190286;23;20044;-67
2023/05/25 00:08:29;;;;;;;15.07;4.32;;;;;;;15.26;51.85;102459.28;6190351;23;20052;-66
2023/05/25 00:10:57;;;;;;;10.57;4.65;;;;;;;15.24;51.89;102461.38;6188122;23;20116;-67
2023/05/25 00:13:25;;;;;;;12.02;4.65;;;;;;;15.22;51.95;102464.28;6190335;23;20029;-68
2023/05/25 00:15:53;;;;;;;12.68;4.47;;;;;;;15.21;52.13;102457.22;6190425;23;20025;-68
2023/05/25 00:18:21;;;;;;;14.52;4.63;;;;;;;15.20;52.21;102457.44;6192016;23;20064;-68
2023/05/25 00:20:49;;;;;;;14.43;4.60;;;;;;;15.20;51.98;102470.97;6190441;23;20256;-69
2023/05/25 00:23:16;;;;;;;10.90;4.03;;;;;;;15.19;52.29;102470.13;6161058;23;20025;-67
2023/05/25 00:25:46;;;;;;;11.27;4.22;;;;;;;15.18;52.33;102467.63;6158448;23;20140;-67
2023/05/25 00:28:14;;;;;;;15.02;4.68;;;;;;;15.17;52.32;102471.41;6161869;23;20029;-67
2023/05/25 00:30:41;;;;;;;15.52;4.90;;;;;;;15.15;52.21;102470.78;6160788;23;20049;-68
2023/05/25 00:33:10;;;;;;;11.07;3.47;;;;;;;15.15;52.04;102471.59;6160973;23;20085;-68
2023/05/25 00:35:37;;;;;;;9.77;3.65;;;;;;;15.14;52.39;102464.53;6159806;23;20076;-67
2023/05/25 00:38:05;;;;;;;14.88;4.90;;;;;;;15.12;52.43;102466.63;6161554;23;20138;-68
2023/05/25 00:40:34;;;;;;;9.25;4.05;;;;;;;15.11;52.25;102464.13;6159297;23;20026;-68
2023/05/25 00:43:04;;;;;;;9.15;3.85;;;;;;;15.10;52.58;102466.00;6160469;23;20060;-68
2023/05/25 00:45:31;;;;;;;11.23;4.03;;;;;;;15.10;52.50;102468.69;6159728;23;20029;-68
2023/05/25 00:48:00;;;;;;;10.38;4.13;;;;;;;15.09;52.52;102464.34;6161579;23;20052;-66
2023/05/25 00:50:37;;;;;;;10.40;3.78;;;;;;;15.09;52.02;102475.16;6160106;23;20041;-68
2023/05/25 00:53:05;;;;;;;7.07;3.78;;;;;;;15.08;52.12;102472.66;6162103;23;20029;-66
2023/05/25 00:55:37;;;;;;;7.18;3.08;;;;;;;15.06;52.36;102475.59;6160257;23;20025;-66
2023/05/25 00:58:07;;;;;;;8.98;3.78;;;;;;;15.05;52.27;102479.34;6162632;23;20108;-68
2023/05/25 01:00:37;;;;;;;9.98;3.85;;;;;;;15.06;52.45;102477.47;6160764;23;20026;-68
2023/05/25 01:03:11;;;;;;;10.65;3.65;;;;;;;15.05;52.33;102475.78;6162102;23;20033;-68
2023/05/25 01:05:43;;;;;;;7.60;3.65;;;;;;;15.03;52.29;102477.88;6161133;23;20025;-68
2023/05/25 01:08:13;;;;;;;9.05;3.75;;;;;;;15.03;52.12;102480.59;6160830;23;20025;-68
2023/05/25 01:10:42;;;;;;;9.43;3.63;;;;;;;14.99;52.37;102472.06;6159364;23;20053;-68
2023/05/25 01:13:13;;;;;;;8.27;3.55;;;;;;;14.98;52.20;102479.34;6161306;23;20044;-68
2023/05/25 01:15:41;;;;;;;8.68;3.33;;;;;;;14.97;52.37;102476.84;6160363;23;20026;-68
2023/05/25 01:18:13;;;;;;;13.40;4.13;;;;;;;14.96;52.24;102473.31;6160910;23;20036;-68
2023/05/25 01:20:53;;;;;;;12.10;4.20;;;;;;;14.95;52.24;102474.34;6160300;23;20025;-67
2023/05/25 01:23:27;;;;;;;8.20;3.50;;;;;;;14.95;52.12;102481.66;6189793;23;20029;-69
2023/05/25 01:26:01;;;;;;;10.70;3.65;;;;;;;14.95;52.29;102485.19;6188305;23;20471;-68
2023/05/25 01:28:32;;;;;;;8.68;2.90;;;;;;;14.84;52.21;102471.47;6190277;23;20023;-69
2023/05/25 01:31:01;;;;;;;8.25;3.92;;;;;;;14.91;52.23;102481.22;6190338;23;20029;-69
2023/05/25 01:33:30;;;;;;;8.20;3.08;;;;;;;14.90;52.53;102489.56;6191127;23;20056;-68
2023/05/25 01:36:00;;;;;;;9.98;3.15;;;;;;;14.90;52.09;102489.56;6189644;23;20029;-67
2023/05/25 01:38:28;;;;;;;8.85;3.25;;;;;;;14.88;52.50;102491.66;6190081;23;20040;-68
2023/05/25 01:40:56;;;;;;;9.38;3.40;;;;;;;14.85;52.11;102498.31;6188489;23;20398;-68
2023/05/25 01:43:25;;;;;;;12.40;4.13;;;;;;;14.80;52.43;102498.13;6190242;23;20056;-67
2023/05/25 01:45:58;;;;;;;12.45;3.42;;;;;;;14.82;52.22;102504.16;6189614;23;20029;-68
2023/05/25 01:48:33;;;;;;;10.02;3.30;;;;;;;14.81;52.22;102502.47;6190093;23;20546;-68
2023/05/25 01:51:07;;;;;;;9.23;3.75;;;;;;;14.82;52.55;102500.59;6189732;23;20028;-66
2023/05/25 01:53:37;;;;;;;10.23;3.60;;;;;;;14.80;52.13;102506.22;6192000;23;20081;-65
2023/05/25 01:56:08;;;;;;;10.20;3.25;;;;;;;14.80;52.20;102510.81;6190445;23;20028;-68
2023/05/25 01:58:40;;;;;;;9.88;3.15;;;;;;;14.77;52.29;102508.53;6191913;23;20128;-67
2023/05/25 02:01:09;;;;;;;12.00;3.65;;;;;;;14.76;52.31;102504.16;6191341;23;20028;-68
2023/05/25 02:03:37;;;;;;;7.15;3.28;;;;;;;14.77;52.20;102513.94;6192858;23;20126;-69
2023/05/25 02:06:07;;;;;;;10.60;3.55;;;;;;;14.75;52.33;102510.59;6191714;23;20041;-68
2023/05/25 02:08:35;;;;;;;8.95;3.55;;;;;;;14.74;52.11;102512.47;6191983;23;20055;-68
2023/05/25 02:11:03;;;;;;;10.98;3.72;;;;;;;14.73;52.37;102510.81;6189551;23;20031;-68
2023/05/25 02:13:31;;;;;;;10.80;3.55;;;;;;;14.69;52.62;102509.56;6192326;23;20056;-68
2023/05/25 02:15:58;;;;;;;7.45;2.97;;;;;;;14.70;52.67;102508.53;6191321;23;20025;-68
2023/05/25 02:18:26;;;;;;;8.43;3.28;;;;;;;14.71;52.45;102506.66;6189992;23;20028;-67
2023/05/25 02:20:54;;;;;;;7.82;3.08;;;;;;;14.70;52.24;102513.94;6188765;23;20107;-67
2023/05/25 02:23:23;;;;;;;10.60;3.50;;;;;;;14.69;52.31;102508.75;6190752;23;20029;-67
2023/05/25 02:25:51;;;;;;;10.90;4.10;;;;;;;14.68;52.55;102501.66;6187813;23;20033;-69
2023/05/25 02:28:19;;;;;;;9.20;3.50;;;;;;;14.66;52.82;102510.00;6190111;23;21205;-68
2023/05/25 02:30:47;;;;;;;11.80;3.35;;;;;;;14.66;52.65;102501.88;6189008;23;20029;-68
2023/05/25 02:33:15;;;;;;;11.82;3.35;;;;;;;14.64;52.55;102499.38;6189890;23;20544;-67
2023/05/25 02:35:43;;;;;;;10.27;3.08;;;;;;;14.64;52.30;102502.06;6188973;23;20029;-68
2023/05/25 02:38:11;;;;;;;9.95;3.60;;;;;;;14.63;52.21;102502.28;6189180;23;20391;-68
2023/05/25 02:40:40;;;;;;;9.00;3.17;;;;;;;14.58;52.56;102494.78;6186910;23;20029;-68
2023/05/25 02:43:08;;;;;;;8.10;3.30;;;;;;;14.61;52.66;102501.66;6189811;23;20017;-68
2023/05/25 02:45:36;;;;;;;8.70;3.22;;;;;;;14.58;52.50;102505.63;6189334;23;20621;-68
2023/05/25 02:48:04;;;;;;;7.68;3.25;;;;;;;14.58;52.81;102510.19;6190701;23;20025;-68
2023/05/25 02:50:32;;;;;;;12.15;3.47;;;;;;;14.56;52.63;102505.00;6190955;23;20080;-66
2023/05/25 02:53:00;;;;;;;10.90;3.65;;;;;;;14.55;52.61;102500.63;6190918;23;20079;-68
2023/05/25 02:55:28;;;;;;;9.40;3.78;;;;;;;14.55;52.64;102500.63;6190127;23;20455;-67
2023/05/25 02:57:58;;;;;;;10.75;3.85;;;;;;;14.53;52.45;102504.56;6191834;23;20447;-68
2023/05/25 03:00:27;;;;;;;8.75;3.30;;;;;;;14.52;52.80;102500.19;6191490;23;20056;-68
2023/05/25 03:02:54;;;;;;;8.55;3.00;;;;;;;14.52;52.57;102511.84;6189853;23;20029;-68
2023/05/25 03:05:22;;;;;;;11.23;3.17;;;;;;;14.52;52.42;102511.03;6190065;23;20044;-69
2023/05/25 03:07:50;;;;;;;10.93;3.28;;;;;;;14.49;52.80;102506.03;6191787;23;20040;-68
2023/05/25 03:10:18;;;;;;;5.85;3.05;;;;;;;14.49;52.66;102514.16;6190382;23;20029;-68
2023/05/25 03:12:46;;;;;;;10.38;3.92;;;;;;;14.47;52.53;102511.66;6191612;23;20490;-68
2023/05/25 03:15:15;;;;;;;8.82;3.28;;;;;;;14.45;52.68;102513.72;6191747;23;20035;-68
2023/05/25 03:17:43;;;;;;;6.53;2.90;;;;;;;14.43;52.91;102514.97;6192779;23;20021;-68
2023/05/25 03:20:14;;;;;;;10.15;3.15;;;;;;;14.39;53.14;102511.81;6191669;23;20028;-65
2023/05/25 03:22:42;;;;;;;8.00;3.40;;;;;;;14.42;52.82;102521.41;6191959;23;20032;-65
2023/05/25 03:25:11;;;;;;;9.25;3.72;;;;;;;14.42;53.11;102524.13;6190246;23;20090;-67
2023/05/25 03:27:40;;;;;;;8.43;3.45;;;;;;;14.40;52.78;102528.88;6189764;23;20025;-69
2023/05/25 03:30:09;;;;;;;9.60;3.40;;;;;;;14.39;52.37;102530.75;6190067;23;20029;-68
2023/05/25 03:32:38;;;;;;;9.93;3.55;;;;;;;14.39;52.60;102540.72;6190036;23;20021;-67
2023/05/25 03:35:06;;;;;;;6.43;3.10;;;;;;;14.39;52.71;102535.31;6191136;23;20031;-68
2023/05/25 03:37:34;;;;;;;10.60;3.42;;;;;;;14.38;52.62;102537.19;6192499;23;20051;-68
2023/05/25 03:40:03;;;;;;;10.10;3.88;;;;;;;14.37;52.81;102537.41;6190860;23;20075;-67
2023/05/25 03:42:31;;;;;;;8.05;3.67;;;;;;;14.36;52.58;102541.97;6192522;23;20025;-66
2023/05/25 03:44:59;;;;;;;6.68;2.90;;;;;;;14.36;52.71;102535.72;6192747;23;20040;-68
2023/05/25 03:47:26;;;;;;;9.75;3.33;;;;;;;14.36;52.51;102535.72;6193006;23;20471;-68
2023/05/25 03:49:55;;;;;;;6.22;2.90;;;;;;;14.36;52.92;102538.44;6193957;23;20029;-68
2023/05/25 03:52:23;;;;;;;9.38;3.47;;;;;;;14.34;52.24;102544.88;6194590;23;20029;-68
2023/05/25 03:54:51;;;;;;;10.93;3.17;;;;;;;14.33;52.49;102539.69;6195106;23;20035;-68
2023/05/25 03:57:19;;;;;;;8.02;3.10;;;;;;;14.31;52.45;102544.47;6191668;23;20025;-66
2023/05/25 03:59:47;;;;;;;11.27;4.57;;;;;;;14.29;52.68;102555.50;6194230;23;20056;-68
2023/05/25 04:02:14;;;;;;;9.55;3.20;;;;;;;14.28;52.76;102555.69;6192277;23;20481;-67
2023/05/25 04:04:42;;;;;;;10.38;3.25;;;;;;;14.27;52.74;102554.84;6194737;23;20101;-67
2023/05/25 04:07:12;;;;;;;10.45;2.88;;;;;;;14.27;52.64;102562.13;6193034;23;20147;-68
2023/05/25 04:09:40;;;;;;;8.73;3.40;;;;;;;14.26;52.80;102574.81;6195082;23;20079;-68
2023/05/25 04:12:08;;;;;;;7.60;3.08;;;;;;;14.25;52.95;102570.47;6191653;23;20036;-68
2023/05/25 04:14:36;;;;;;;9.10;3.20;;;;;;;14.20;53.13;102564.81;6194229;23;20025;-68
2023/05/25 04:17:04;;;;;;;10.32;3.65;;;;;;;14.23;53.00;102572.53;6192080;23;20025;-68
2023/05/25 04:19:32;;;;;;;7.68;3.50;;;;;;;14.22;53.00;102570.03;6194180;23;20351;-68
2023/05/25 04:22:00;;;;;;;9.80;3.65;;;;;;;14.21;52.78;102565.66;6192189;23;20048;-66
2023/05/25 04:24:29;;;;;;;9.43;3.25;;;;;;;14.20;53.00;102572.09;6194638;23;20021;-67
2023/05/25 04:26:57;;;;;;;5.78;2.83;;;;;;;14.17;52.86;102567.94;6192622;23;20066;-67
2023/05/25 04:29:25;;;;;;;7.47;3.25;;;;;;;14.16;53.01;102570.84;6193853;23;20487;-68
2023/05/25 04:31:53;;;;;;;9.13;3.05;;;;;;;14.13;53.42;102566.69;6191921;23;20021;-67
2023/05/25 04:34:22;;;;;;;9.48;4.70;;;;;;;14.11;53.58;102571.44;6193216;23;20029;-65
2023/05/25 04:36:49;;;;;;;9.85;3.25;;;;;;;14.10;53.01;102566.25;6193119;23;20028;-68
2023/05/25 04:39:17;;;;;;;11.60;3.45;;;;;;;14.09;53.45;102568.13;6192695;23;20036;-65
2023/05/25 04:41:47;;;;;;;8.63;3.22;;;;;;;14.08;53.57;102576.44;6191829;23;20029;-68
2023/05/25 04:44:14;;;;;;;6.63;3.67;;;;;;;14.06;53.63;102573.94;6194085;23;20055;-67
2023/05/25 04:46:43;;;;;;;10.18;3.30;;;;;;;14.07;53.58;102575.59;6194127;23;20048;-68
2023/05/25 04:49:12;;;;;;;8.48;4.00;;;;;;;14.06;53.38;102565.81;6193245;23;20083;-68
2023/05/25 04:51:40;;;;;;;11.40;3.67;;;;;;;14.05;53.15;102571.44;6193705;23;20032;-69
2023/05/25 04:54:08;;;;;;;9.65;3.35;;;;;;;14.04;53.47;102583.28;6195190;23;20040;-67
2023/05/25 04:56:36;;;;;;;8.70;3.67;;;;;;;14.05;53.73;102580.38;6189596;23;20029;-66
2023/05/25 04:59:06;;;;;;;8.57;3.40;;;;;;;14.03;53.41;102579.75;6190166;23;20052;-66
2023/05/25 05:01:39;;;;;;;10.93;4.00;;;;;;;14.02;53.87;102578.06;6192060;23;20025;-65
2023/05/25 05:04:07;;;;;;;7.32;3.25;;;;;;;13.97;53.58;102575.97;6191889;23;20029;-65
2023/05/25 05:06:35;;;;;;;11.25;3.67;;;;;;;14.01;53.34;102577.25;6193030;23;20120;-68
2023/05/25 05:09:03;;;;;;;6.60;3.33;;;;;;;14.01;53.48;102589.94;6190912;23;20029;-68
2023/05/25 05:11:31;;;;;;;7.70;3.63;;;;;;;14.04;53.56;102594.09;6189232;23;20025;-68
2023/05/25 05:13:59;;;;;;;10.73;3.30;;;;;;;14.04;53.53;102594.09;6189293;23;20581;-68
2023/05/25 05:16:32;;;;;;;5.70;3.10;;;;;;;14.05;53.63;102596.59;6188757;23;20028;-68
2023/05/25 05:19:00;;;;;;;9.35;2.88;;;;;;;14.02;53.53;102587.03;6192415;23;20025;-68
2023/05/25 05:21:28;;;;;;;7.03;3.05;;;;;;;14.09;53.31;102591.63;6189322;23;20025;-68
2023/05/25 05:23:56;;;;;;;8.23;3.10;;;;;;;14.12;53.10;102596.63;6191120;23;20028;-65
2023/05/25 05:26:24;;;;;;;9.07;4.40;;;;;;;14.13;53.11;102601.00;6188423;23;20025;-68
2023/05/25 05:28:52;;;;;;;6.05;2.80;;;;;;;14.15;53.32;102607.03;6191955;23;20056;-71
2023/05/25 05:31:21;;;;;;;7.22;2.80;;;;;;;14.15;53.08;102602.47;6191748;23;20029;-65
2023/05/25 05:33:51;;;;;;;11.30;4.07;;;;;;;14.19;53.58;102611.00;6192986;23;20025;-69
2023/05/25 05:36:18;;;;;;;9.77;3.03;;;;;;;14.19;53.69;102606.44;6192095;23;20036;-65
2023/05/25 05:38:46;;;;;;;8.35;3.53;;;;;;;14.21;53.69;102608.94;6189816;23;20028;-71
2023/05/25 05:41:14;;;;;;;7.13;3.05;;;;;;;14.24;54.11;102616.63;6185993;23;20029;-71
2023/05/25 05:43:44;;;;;;;9.07;3.75;;;;;;;14.26;54.03;102618.09;6187553;23;20115;-70
2023/05/25 05:46:12;;;;;;;8.40;3.28;;;;;;;14.30;54.31;102624.78;6187889;23;20028;-69
2023/05/25 05:48:41;;;;;;;8.10;3.28;;;;;;;14.33;54.39;102631.66;6188516;23;20029;-69
2023/05/25 05:51:10;;;;;;;13.20;4.22;;;;;;;14.35;54.11;102632.28;6188467;23;20080;-70
2023/05/25 05:53:38;;;;;;;8.95;3.05;;;;;;;14.34;53.92;102631.44;6187795;23;20084;-68
2023/05/25 05:56:06;;;;;;;11.60;3.65;;;;;;;14.39;53.99;102638.94;6185852;23;20021;-70
2023/05/25 05:58:34;;;;;;;7.38;3.28;;;;;;;14.40;54.01;102639.78;6186885;23;20025;-68
2023/05/25 06:01:02;;;;;;;6.28;3.00;;;;;;;14.42;54.10;102643.16;6185983;23;20043;-70
2023/05/25 06:03:29;;;;;;;11.23;3.92;;;;;;;14.44;53.90;102646.47;6184978;23;20069;-67
2023/05/25 06:05:57;;;;;;;12.70;3.40;;;;;;;14.44;53.97;102649.19;6185161;23;20136;-70
2023/05/25 06:08:27;;;;;;;10.30;3.28;;;;;;;14.46;54.10;102649.81;6185770;23;20063;-68
2023/05/25 06:10:55;;;;;;;8.48;3.28;;;;;;;14.46;54.05;102647.94;6183932;23;20028;-69
2023/05/25 06:13:23;;;;;;;11.50;2.85;;;;;;;14.48;54.13;102651.28;6186967;23;20029;-73
2023/05/25 06:15:51;;;;;;;11.15;3.47;;;;;;;14.62;55.12;102652.16;6188708;23;20056;-59
2023/05/25 06:18:19;;;;;;;13.77;4.55;;;;;;;14.44;55.32;102660.84;6189787;23;20029;-64
2023/05/25 06:20:46;;;;;;;14.27;4.20;;;;;;;14.35;55.37;102656.63;6188886;23;20028;-64
2023/05/25 06:23:14;;;;;;;10.57;3.30;;;;;;;14.37;54.97;102653.72;6189669;23;20039;-64
2023/05/25 06:25:43;;;;;;;7.90;3.10;;;;;;;14.41;55.08;102652.28;6187231;23;20029;-64
2023/05/25 06:28:12;;;;;;;11.23;3.55;;;;;;;14.47;55.30;102657.72;6189861;23;20211;-64
2023/05/25 06:30:39;;;;;;;9.25;2.97;;;;;;;14.51;54.51;102658.16;6189262;23;20165;-64
2023/05/25 06:33:08;;;;;;;10.23;3.40;;;;;;;14.56;55.10;102663.78;6189120;23;20029;-63
2023/05/25 06:35:36;;;;;;;9.60;3.00;;;;;;;14.58;55.05;102657.13;6189253;23;20021;-64
2023/05/25 06:38:04;;;;;;;11.98;3.60;;;;;;;14.62;54.61;102666.53;6189848;23;20056;-64
2023/05/25 06:40:31;;;;;;;9.60;3.60;;;;;;;14.64;54.89;102664.44;6187691;23;20443;-64
2023/05/25 06:43:00;;;;;;;8.23;2.83;;;;;;;14.67;55.00;102667.78;6188929;23;20021;-63
2023/05/25 06:45:28;;;;;;;15.57;3.92;;;;;;;14.68;54.90;102659.44;6188966;23;20025;-65
2023/05/25 06:47:56;;;;;;;8.75;3.38;;;;;;;14.70;54.71;102670.06;6190177;23;20052;-63
2023/05/25 06:50:24;;;;;;;9.15;3.08;;;;;;;14.73;54.80;102664.25;6190789;23;20040;-65
2023/05/25 06:52:52;;;;;;;7.65;3.00;;;;;;;14.74;54.63;102672.16;6190372;23;20087;-64
2023/05/25 06:55:20;;;;;;;8.73;2.88;;;;;;;14.77;54.61;102669.06;6189113;23;20032;-64
2023/05/25 06:57:47;;;;;;;8.77;3.33;;;;;;;14.80;54.77;102667.81;6191096;23;20020;-65
2023/05/25 07:00:18;;;;;;;10.77;3.35;;;;;;;14.83;54.31;102670.94;6190376;23;20029;-64
2023/05/25 07:02:46;;;;;;;8.65;2.45;;;;;;;14.85;54.71;102671.56;6190644;23;20083;-64
2023/05/25 07:05:14;;;;;;;9.43;3.10;;;;;;;14.87;54.73;102665.94;6190190;23;20576;-64
2023/05/25 07:07:42;;;;;;;6.65;3.05;;;;;;;14.89;54.31;102666.56;6189790;23;20029;-64
2023/05/25 07:10:10;;;;;;;8.75;3.22;;;;;;;14.91;54.61;102676.16;6188987;23;20162;-65
2023/05/25 07:12:38;;;;;;;11.32;3.53;;;;;;;14.93;54.86;102684.91;6190283;23;20055;-64
2023/05/25 07:15:07;;;;;;;10.52;2.72;;;;;;;14.96;54.76;102678.25;6190593;23;20037;-64
2023/05/25 07:17:36;;;;;;;6.55;2.55;;;;;;;14.97;54.65;102679.91;6188962;23;20044;-65
2023/05/25 07:20:05;;;;;;;7.95;3.03;;;;;;;15.00;54.58;102682.22;6189590;23;20025;-64
2023/05/25 07:22:33;;;;;;;7.25;2.58;;;;;;;15.01;54.73;102688.47;6189524;23;20029;-62
2023/05/25 07:25:00;;;;;;;7.25;2.38;;;;;;;15.01;54.38;102688.47;6189682;23;20513;-62
2023/05/25 07:27:30;;;;;;;6.07;2.70;;;;;;;15.01;54.70;102686.59;6190653;23;20036;-63
2023/05/25 07:29:58;;;;;;;8.05;2.80;;;;;;;15.03;54.61;102697.22;6190790;23;20171;-61
2023/05/25 07:32:26;;;;;;;7.18;3.20;;;;;;;15.02;54.35;102692.84;6190962;23;20028;-64
2023/05/25 07:34:55;;;;;;;8.88;3.17;;;;;;;15.03;54.51;102683.66;6192348;23;20083;-62
2023/05/25 07:37:22;;;;;;;7.82;2.95;;;;;;;15.05;54.47;102703.25;6192126;23;20075;-63
2023/05/25 07:39:50;;;;;;;7.88;2.00;;;;;;;15.03;54.72;102697.22;6190764;23;20458;-63
2023/05/25 07:42:20;;;;;;;9.90;3.10;;;;;;;15.04;54.74;102693.47;6190234;23;20052;-64
2023/05/25 07:44:48;;;;;;;10.65;3.20;;;;;;;15.02;54.64;102690.13;6190719;23;20032;-63
2023/05/25 07:47:16;;;;;;;9.52;3.30;;;;;;;15.01;54.33;102693.88;6191247;23;20029;-62
2023/05/25 07:49:44;;;;;;;9.57;2.50;;;;;;;15.00;54.49;102698.47;6191189;23;20035;-64
2023/05/25 07:52:14;;;;;;;7.50;2.88;;;;;;;15.01;54.77;102689.28;6191584;23;20111;-62
2023/05/25 07:54:41;;;;;;;9.88;3.28;;;;;;;15.04;54.74;102693.47;6192417;23;20033;-64
2023/05/25 07:57:09;;;;;;;14.13;3.30;;;;;;;15.05;54.67;102700.53;6190108;23;20040;-65
2023/05/25 07:59:37;;;;;;;10.38;2.80;;;;;;;15.06;54.63;102696.81;6192454;23;20029;-64
2023/05/25 08:02:05;;;;;;;11.98;3.58;;;;;;;15.07;54.51;102698.47;6189152;23;20036;-63
2023/05/25 08:04:34;;;;;;;5.90;2.83;;;;;;;15.07;54.52;102698.47;6191492;23;20103;-63
2023/05/25 08:07:02;;;;;;;7.20;2.67;;;;;;;15.09;54.70;102699.09;6191013;23;20076;-65
2023/05/25 08:09:31;;;;;;;5.55;2.33;;;;;;;15.10;54.70;102704.31;6192627;23;20029;-65
2023/05/25 08:12:00;;;;;;;8.60;2.67;;;;;;;15.13;54.50;102701.19;6189729;23;20076;-65
2023/05/25 08:14:48;;;;;;;6.28;2.33;;;;;;;15.16;54.56;102706.19;6192655;23;20100;-64
2023/05/25 08:17:16;;;;;;;5.45;2.08;;;;;;;15.20;54.41;102706.59;6192239;23;20029;-67
2023/05/25 08:19:44;;;;;;;8.55;2.85;;;;;;;15.21;54.45;102719.09;6193097;23;20029;-64
2023/05/25 08:22:11;;;;;;;6.97;2.92;;;;;;;15.22;54.34;102718.91;6192371;23;20227;-62
2023/05/25 08:24:41;;;;;;;5.43;2.38;;;;;;;15.24;54.42;102718.69;6193810;23;20091;-62
2023/05/25 08:27:08;;;;;;;7.88;2.40;;;;;;;15.26;54.42;102722.03;6191496;23;20032;-61
2023/05/25 08:29:36;;;;;;;6.43;2.22;;;;;;;15.26;54.20;102714.75;6193254;23;20052;-64
2023/05/25 08:32:04;;;;;;;5.47;2.35;;;;;;;15.28;54.42;102723.50;6191467;23;20025;-64
2023/05/25 08:34:32;;;;;;;9.60;3.17;;;;;;;15.29;54.44;102719.75;6193131;23;20036;-63
2023/05/25 08:37:00;;;;;;;7.70;2.47;;;;;;;15.31;54.23;102722.25;6190393;23;20036;-64
2023/05/25 08:39:28;;;;;;;5.35;2.45;;;;;;;15.34;54.20;102716.41;6191320;23;20035;-64
2023/05/25 08:41:57;;;;;;;6.93;3.17;;;;;;;15.35;54.54;102718.06;6189382;23;20033;-64
2023/05/25 08:44:27;;;;;;;4.60;2.20;;;;;;;15.35;54.40;102723.50;6193315;23;20052;-63
2023/05/25 08:46:56;;;;;;;5.55;2.78;;;;;;;15.35;54.58;102723.50;6192592;23;20079;-64
2023/05/25 08:49:26;;;;;;;5.97;2.50;;;;;;;15.35;54.46;102717.25;6193345;23;20025;-64
2023/05/25 08:51:55;;;;;;;7.28;2.80;;;;;;;15.36;54.56;102729.75;6191066;23;20052;-64
2023/05/25 08:54:26;;;;;;;5.65;2.83;;;;;;;15.36;54.45;102727.88;6191637;23;20025;-64
2023/05/25 08:57:01;;;;;;;8.93;2.42;;;;;;;15.37;54.46;102724.13;6189303;23;20024;-64
2023/05/25 08:59:37;;;;;;;4.57;2.80;;;;;;;15.37;54.71;102732.25;6191837;23;20025;-64
2023/05/25 09:02:25;;;;;;;5.68;2.05;;;;;;;15.39;54.71;102732.88;6191883;23;20359;-63
2023/05/25 09:04:54;;;;;;;5.15;2.33;;;;;;;15.40;54.88;102723.72;6191545;23;20048;-62
2023/05/25 09:07:23;;;;;;;6.30;2.30;;;;;;;15.43;54.60;102730.59;6190643;23;20033;-63
2023/05/25 09:09:51;;;;;;;5.13;2.28;;;;;;;15.45;54.75;102731.22;6190884;23;20080;-65
2023/05/25 09:12:22;;;;;;;5.68;2.85;;;;;;;15.46;54.84;102728.28;6190156;23;20031;-65
2023/05/25 09:14:50;;;;;;;10.02;2.88;;;;;;;15.44;54.45;102716.00;6189669;23;20036;-65
2023/05/25 09:17:19;;;;;;;9.75;2.45;;;;;;;15.48;54.64;102728.91;6190840;23;20021;-65
2023/05/25 09:19:47;;;;;;;6.57;2.60;;;;;;;15.51;54.52;102733.91;6192571;23;20021;-65
2023/05/25 09:22:15;;;;;;;5.95;2.47;;;;;;;15.52;54.15;102729.34;6191107;23;20044;-65
2023/05/25 09:24:44;;;;;;;7.13;2.53;;;;;;;15.50;54.31;102734.13;6192114;23;20025;-63
2023/05/25 09:27:16;;;;;;;5.85;2.72;;;;;;;15.49;54.45;102737.88;6190142;23;20024;-66
2023/05/25 09:29:47;;;;;;;9.95;2.67;;;;;;;15.47;54.32;102727.25;6192685;23;20025;-66
2023/05/25 09:32:15;;;;;;;7.03;2.70;;;;;;;15.47;54.18;102729.97;6189964;23;20032;-66
2023/05/25 09:34:43;;;;;;;7.68;2.83;;;;;;;15.45;54.25;102725.78;6189609;23;20077;-65
2023/05/25 09:37:12;;;;;;;7.15;3.30;;;;;;;15.48;54.19;102736.22;6189599;23;20021;-63
2023/05/25 09:39:41;;;;;;;8.95;2.40;;;;;;;15.48;54.27;102730.78;6190396;23;21219;-66
2023/05/25 09:42:10;;;;;;;9.40;3.97;;;;;;;15.50;54.37;102732.25;6187980;23;20021;-69
2023/05/25 09:44:38;;;;;;;9.05;2.90;;;;;;;15.52;54.31;102734.75;6189861;23;20112;-64
2023/05/25 09:47:09;;;;;;;7.65;3.17;;;;;;;15.53;54.36;102736.44;6189970;23;20031;-65
2023/05/25 09:49:38;;;;;;;7.35;2.60;;;;;;;15.52;54.16;102726.63;6191087;23;20025;-63
2023/05/25 09:52:06;;;;;;;10.52;2.80;;;;;;;15.51;53.58;102733.91;6190232;23;20082;-66
2023/05/25 09:54:35;;;;;;;9.80;2.70;;;;;;;15.50;54.03;102737.69;6191313;23;20048;-64
2023/05/25 09:57:04;;;;;;;8.85;2.88;;;;;;;15.51;54.04;102735.78;6190169;23;20025;-64
2023/05/25 09:59:32;;;;;;;9.10;2.92;;;;;;;15.50;53.93;102744.97;6190695;23;20027;-64
2023/05/25 10:02:00;;;;;;;7.57;2.70;;;;;;;15.49;54.00;102736.00;6190493;23;20355;-64
2023/05/25 10:04:29;;;;;;;12.52;3.35;;;;;;;15.50;53.96;102742.25;6191657;23;20081;-64
2023/05/25 10:06:58;;;;;;;12.68;2.95;;;;;;;15.48;53.87;102744.34;6190843;23;20032;-64
2023/05/25 10:09:28;;;;;;;7.78;2.95;;;;;;;15.49;53.98;102740.59;6191283;23;20088;-64
2023/05/25 10:11:57;;;;;;;11.38;3.50;;;;;;;15.49;53.79;102744.13;6189408;23;20025;-64
2023/05/25 10:14:26;;;;;;;6.05;2.53;;;;;;;15.47;53.83;102748.94;6192091;23;20025;-64
2023/05/25 10:16:59;;;;;;;8.35;3.08;;;;;;;15.51;53.67;102750.19;6191610;23;20104;-64
2023/05/25 10:19:33;;;;;;;9.55;2.60;;;;;;;15.52;53.89;102754.56;6193141;23;20087;-65
2023/05/25 10:22:06;;;;;;;12.88;3.22;;;;;;;15.52;53.49;102751.00;6191833;23;20087;-64
2023/05/25 10:24:42;;;;;;;9.50;3.58;;;;;;;15.52;53.47;102749.13;6193192;23;20025;-65
2023/05/25 10:27:15;;;;;;;7.72;2.97;;;;;;;15.53;53.77;102755.41;6190137;23;20028;-64
2023/05/25 10:29:56;;;;;;;8.02;3.08;;;;;;;15.54;53.77;102752.47;6192814;23;20040;-64
2023/05/25 10:32:24;;;;;;;8.85;2.55;;;;;;;15.55;53.50;102748.72;6191650;23;20091;-65
2023/05/25 10:34:55;;;;;;;11.60;4.18;;;;;;;15.56;53.55;102747.69;6192247;23;20021;-65
2023/05/25 10:37:23;;;;;;;9.45;3.25;;;;;;;15.58;53.51;102755.63;6192514;23;20059;-65
2023/05/25 10:39:52;;;;;;;7.18;2.95;;;;;;;15.59;53.59;102746.47;6191425;23;20028;-65
2023/05/25 10:42:20;;;;;;;6.18;2.65;;;;;;;15.60;53.49;102758.97;6188539;23;20083;-64
2023/05/25 10:44:49;;;;;;;6.82;2.65;;;;;;;15.61;53.49;102744.34;6191160;23;20075;-65
2023/05/25 10:47:17;;;;;;;6.72;2.80;;;;;;;15.62;53.28;102759.56;6191171;23;20317;-64
2023/05/25 10:49:55;;;;;;;7.93;2.88;;;;;;;15.63;53.52;102764.78;6191979;23;20025;-64
2023/05/25 10:52:27;;;;;;;9.63;3.28;;;;;;;15.65;53.20;102759.16;6191447;23;20056;-61
2023/05/25 10:54:56;;;;;;;9.75;4.15;;;;;;;15.69;52.61;102756.84;6190376;23;20356;-63
2023/05/25 10:57:25;;;;;;;10.80;3.13;;;;;;;15.66;52.82;102758.09;6190161;23;20031;-65
2023/05/25 10:59:58;;;;;;;8.35;3.05;;;;;;;15.65;52.84;102758.31;6192538;23;20025;-62
2023/05/25 11:02:27;;;;;;;8.75;3.15;;;;;;;15.66;52.98;102754.56;6192024;23;20649;-63
2023/05/25 11:05:31;;;;;;;9.45;3.20;;;;;;;15.66;52.86;102752.69;6192360;23;20072;-63
2023/05/25 11:08:00;;;;;;;7.50;2.90;;;;;;;15.67;53.19;102754.34;6192217;23;20107;-63
2023/05/25 11:10:53;;;;;;;15.75;3.17;;;;;;;15.69;52.90;102749.56;6189641;23;20072;-64
2023/05/25 11:13:23;;;;;;;8.45;3.22;;;;;;;15.70;53.09;102748.50;6191053;23;20058;-64
2023/05/25 11:16:23;;;;;;;9.27;3.08;;;;;;;15.72;53.03;102753.72;6190502;23;20029;-64
2023/05/25 11:18:53;;;;;;;6.32;2.42;;;;;;;15.72;52.87;102751.84;6191694;23;20497;-64
2023/05/25 11:21:42;;;;;;;8.23;2.85;;;;;;;15.74;52.64;102738.09;6190330;23;20040;-64
2023/05/25 11:24:17;;;;;;;9.00;2.70;;;;;;;15.75;52.63;102737.03;6191877;23;20025;-63
2023/05/25 11:26:57;;;;;;;7.13;2.80;;;;;;;15.76;52.74;102734.13;6188061;23;20025;-63
2023/05/25 11:29:25;;;;;;;7.68;2.63;;;;;;;15.78;52.80;102736.63;6190984;23;20035;-63
2023/05/25 11:31:54;;;;;;;8.23;3.03;;;;;;;15.81;52.85;102728.91;6189673;23;20029;-63